EST,Max TemperatureF,Mean TemperatureF,Min TemperatureF,Max Dew PointF,MeanDew PointF,Min DewpointF,Max Humidity, Mean Humidity, Min Humidity, Max Sea Level PressureIn, Mean Sea Level PressureIn, Min Sea Level PressureIn, Max VisibilityMiles, Mean VisibilityMiles, Min VisibilityMiles, Max Wind SpeedMPH, Mean Wind SpeedMPH, Max Gust SpeedMPH,PrecipitationIn, CloudCover, Events, WindDirDegrees
2013-12-1,58,44,32,42,37,32,98,77,47,30.37,30.20,30.04,10,10,7,5,1,,0.00,5,,249
2013-12-2,59,48,38,46,40,34,99,81,39,30.03,29.91,29.84,10,10,7,5,0,,0.00,4,,82
2013-12-3,56,45,34,46,41,33,99,81,60,30.01,29.96,29.89,10,10,7,6,1,,0.00,5,Rain,156
2013-12-4,63,57,51,59,54,46,100,91,74,30.11,30.05,30.00,10,8,0,5,1,,0.00,7,Fog-Rain,184
2013-12-5,69,60,52,64,59,52,100,95,76,30.16,30.10,30.07,10,5,0,7,2,,0.00,8,Fog,172
2013-12-6,78,70,62,64,62,60,100,80,55,30.12,30.06,30.02,10,10,7,18,9,28,0.00,2,,191
2013-12-7,68,56,44,66,47,32,100,82,63,30.45,30.26,30.03,10,10,4,15,9,24,0.31,7,Rain,22
2013-12-8,43,40,36,36,35,31,100,88,63,30.45,30.39,30.31,10,6,2,13,8,21,0.14,8,Rain-Snow,20
2013-12-9,49,42,36,49,42,36,100,100,100,30.29,30.16,30.07,10,1,0,5,1,,0.03,8,Fog-Rain,180
2013-12-10,50,41,32,50,44,32,100,94,73,30.35,30.08,29.91,10,7,1,9,2,18,0.57,5,Rain,344
2013-12-11,49,38,27,32,28,21,100,77,34,30.47,30.37,30.31,10,10,4,8,1,,0.00,0,,217
2013-12-12,46,37,28,32,24,13,100,70,27,30.42,30.35,30.28,10,10,10,10,2,18,0.00,0,,336
2013-12-13,52,38,24,32,25,18,99,68,26,30.42,30.35,30.30,10,10,10,9,1,,0.00,0,,202
2013-12-14,51,44,37,51,38,24,100,80,44,30.32,30.06,29.80,10,8,1,9,2,,1.03,6,Rain,64
2013-12-15,55,44,33,45,38,29,100,80,47,30.10,29.89,29.72,10,7,2,9,2,16,0.02,4,Rain,302
2013-12-16,57,44,30,36,32,29,99,71,36,30.21,30.14,30.09,10,10,10,8,2,,0.03,0,,197
2013-12-17,62,48,33,38,35,32,99,65,34,30.15,30.05,29.92,10,10,10,13,4,18,0.00,0,,195
2013-12-18,52,41,31,36,24,16,85,51,24,30.32,30.22,30.04,10,10,10,12,3,20,0.00,0,,323
2013-12-19,62,46,29,32,27,18,96,58,20,30.36,30.30,30.25,10,10,10,12,2,17,0.00,0,,187
2013-12-20,68,52,37,51,43,33,96,73,44,30.27,30.22,30.14,10,10,10,15,2,20,0.00,3,,190
2013-12-21,74,60,48,66,57,48,100,87,63,30.18,30.12,30.08,10,8,0,14,4,20,0.00,4,Fog,177
2013-12-22,79,72,66,67,64,60,98,80,55,30.12,30.08,30.06,10,10,10,18,10,28,0.00,7,,188
2013-12-23,73,62,50,69,62,46,100,94,75,30.15,30.08,30.01,10,9,3,15,6,22,0.34,8,Rain,240
2013-12-24,48,40,32,45,31,16,93,62,44,30.45,30.26,30.12,10,10,10,12,6,17,0.00,4,,341
2013-12-25,41,34,27,23,14,8,71,47,28,30.56,30.48,30.40,10,10,10,12,5,16,0.00,0,,27
2013-12-26,49,40,32,32,28,22,99,71,48,30.40,30.33,30.26,10,10,10,5,1,,0.00,5,,331
2013-12-27,53,40,28,30,25,21,96,63,29,30.46,30.41,30.37,10,10,10,5,1,,0.00,0,,343
2013-12-28,57,42,26,40,29,21,98,68,24,30.43,30.33,30.15,10,10,10,6,0,,0.00,1,Rain,156
2013-12-29,68,56,45,67,51,38,100,93,70,30.14,29.87,29.69,10,7,1,21,5,30,1.61,6,Rain,219
2013-12-30,56,46,36,47,41,37,100,84,51,30.15,30.06,29.95,10,8,0,5,1,,0.00,3,Fog,330
2013-12-31,52,44,34,41,31,22,93,63,32,30.37,30.25,30.12,10,10,10,10,2,17,0.00,2,,312